Time;durP1;ratioP1;P1;durP2;ratioP2;P2;SDS_P1;SDS_P2;PMS_P1;PMS_P2;Temp;Humidity;BMP_temperature;BMP_pressure;BME280_temperature;BME280_humidity;BME280_pressure;Samples;Min_cycle;Max_cycle;Signal;HPM_P1;HPM_P2
2022/10/07 00:02:21;;;;;;;6.40;1.00;;;;;;;;;;8260273;28;20045;-62
2022/10/07 00:06:21;;;;;;;2.25;0.70;;;;;;;;;;8262895;28;20022;-62
2022/10/07 00:10:22;;;;;;;7.05;1.13;;;;;;;;;;8261491;28;20022;-62
2022/10/07 00:14:22;;;;;;;3.17;0.80;;;;;;;;;;8264369;28;20291;-62
2022/10/07 00:18:22;;;;;;;4.25;1.10;;;;;;;;;;8261446;28;20279;-61
2022/10/07 00:22:22;;;;;;;2.55;0.88;;;;;;;;;;8262906;28;20581;-61
2022/10/07 00:26:27;;;;;;;4.68;1.20;;;;;;;;;;8265556;28;20033;-62
2022/10/07 00:30:27;;;;;;;6.80;1.40;;;;;;;;;;8274748;28;21707;-62
2022/10/07 00:34:27;;;;;;;5.28;0.90;;;;;;;;;;8270818;28;20022;-62
2022/10/07 00:38:27;;;;;;;4.43;1.00;;;;;;;;;;8270410;28;20052;-62
2022/10/07 00:42:29;;;;;;;5.78;1.15;;;;;;;;;;8272986;28;20029;-61
2022/10/07 00:46:33;;;;;;;6.05;1.13;;;;;;;;;;8269765;28;20029;-63
2022/10/07 00:50:33;;;;;;;4.05;1.17;;;;;;;;;;8270455;28;20793;-62
2022/10/07 00:54:34;;;;;;;3.23;1.03;;;;;;;;;;8270650;28;20147;-62
2022/10/07 00:58:36;;;;;;;7.13;1.25;;;;;;;;;;8272319;28;20883;-62
2022/10/07 01:02:37;;;;;;;3.58;0.90;;;;;;;;;;8272660;28;20849;-62
2022/10/07 01:06:38;;;;;;;5.72;0.90;;;;;;;;;;8271721;28;20026;-62
2022/10/07 01:10:46;;;;;;;6.80;1.08;;;;;;;;;;8271704;28;20025;-62
2022/10/07 01:14:51;;;;;;;7.03;0.98;;;;;;;;;;8271103;28;20022;-61
2022/10/07 01:18:58;;;;;;;5.18;1.17;;;;;;;;;;8268074;28;20525;-61
2022/10/07 01:23:17;;;;;;;4.10;0.93;;;;;;;;;;8269589;28;20494;-62
2022/10/07 01:27:19;;;;;;;4.10;0.90;;;;;;;;;;8269793;28;20033;-62
2022/10/07 01:31:21;;;;;;;3.33;0.77;;;;;;;;;;8271517;28;20042;-62
2022/10/07 01:35:24;;;;;;;3.60;0.80;;;;;;;;;;8272509;28;20032;-62
2022/10/07 01:39:28;;;;;;;1.60;0.70;;;;;;;;;;8271313;28;20614;-62
2022/10/07 01:43:28;;;;;;;2.90;0.60;;;;;;;;;;8269425;28;20056;-61
2022/10/07 01:47:29;;;;;;;6.43;1.00;;;;;;;;;;8270112;28;20801;-62
2022/10/07 01:51:30;;;;;;;2.40;0.90;;;;;;;;;;8269723;28;20068;-62
2022/10/07 01:55:31;;;;;;;2.28;0.77;;;;;;;;;;8269895;28;20058;-62
2022/10/07 01:59:40;;;;;;;6.45;1.17;;;;;;;;;;8277413;28;20932;-62
2022/10/07 02:03:41;;;;;;;2.50;0.85;;;;;;;;;;8276264;28;20410;-62
2022/10/07 02:07:54;;;;;;;2.80;0.82;;;;;;;;;;8276253;28;20026;-62
2022/10/07 02:12:03;;;;;;;2.10;0.75;;;;;;;;;;8273419;28;20034;-61
2022/10/07 02:16:25;;;;;;;4.18;0.90;;;;;;;;;;8275167;28;20045;-62
2022/10/07 02:20:28;;;;;;;2.75;0.70;;;;;;;;;;8275367;28;20056;-62
2022/10/07 02:24:31;;;;;;;3.17;1.00;;;;;;;;;;8274232;28;20081;-62
2022/10/07 02:28:34;;;;;;;1.70;0.77;;;;;;;;;;8276016;28;20041;-61
2022/10/07 02:32:35;;;;;;;2.05;0.70;;;;;;;;;;8275239;28;20041;-62
2022/10/07 02:36:39;;;;;;;1.85;0.63;;;;;;;;;;8277125;28;20036;-62
2022/10/07 02:40:47;;;;;;;4.43;0.80;;;;;;;;;;8276561;28;20048;-63
2022/10/07 02:44:50;;;;;;;6.18;0.77;;;;;;;;;;8276363;28;20117;-62
2022/10/07 02:49:01;;;;;;;4.95;0.85;;;;;;;;;;8276360;28;20054;-62
2022/10/07 02:53:02;;;;;;;1.50;0.68;;;;;;;;;;8274837;28;20053;-62
2022/10/07 02:57:04;;;;;;;5.38;0.85;;;;;;;;;;8274324;28;20030;-62
2022/10/07 03:01:07;;;;;;;3.47;1.10;;;;;;;;;;8275100;28;20044;-62
2022/10/07 03:05:08;;;;;;;2.88;0.85;;;;;;;;;;8275170;28;20050;-61
2022/10/07 03:09:08;;;;;;;7.15;0.98;;;;;;;;;;8274980;28;20046;-61
2022/10/07 03:13:08;;;;;;;3.53;0.83;;;;;;;;;;8274329;28;20028;-63
2022/10/07 03:17:09;;;;;;;5.97;0.90;;;;;;;;;;8274373;28;21120;-62
2022/10/07 03:21:09;;;;;;;6.47;1.10;;;;;;;;;;8273561;28;20037;-61
2022/10/07 03:25:10;;;;;;;4.10;0.90;;;;;;;;;;8275388;28;20871;-62
2022/10/07 03:29:10;;;;;;;8.60;0.90;;;;;;;;;;8275540;28;20025;-62
2022/10/07 03:33:10;;;;;;;6.13;0.90;;;;;;;;;;8273785;28;20035;-61
2022/10/07 03:37:10;;;;;;;5.95;1.10;;;;;;;;;;8274139;28;20810;-61
2022/10/07 03:41:10;;;;;;;4.80;1.10;;;;;;;;;;8273992;28;20021;-61
2022/10/07 03:45:11;;;;;;;8.15;1.00;;;;;;;;;;8273359;28;20068;-62
2022/10/07 03:49:11;;;;;;;3.20;1.02;;;;;;;;;;8272254;28;20088;-61
2022/10/07 03:53:11;;;;;;;4.15;0.77;;;;;;;;;;8274368;28;20028;-62
2022/10/07 04:01:30;;;;;;;2.70;0.93;;;;;;;;;;8271564;28;20597;-62
2022/10/07 04:05:31;;;;;;;2.05;0.80;;;;;;;;;;8271061;28;20061;-62
2022/10/07 04:09:31;;;;;;;3.28;0.70;;;;;;;;;;8274105;28;20952;-61
2022/10/07 04:13:31;;;;;;;3.45;0.98;;;;;;;;;;8274519;28;20025;-61
2022/10/07 04:17:31;;;;;;;4.60;0.90;;;;;;;;;;8271689;28;20148;-61
2022/10/07 04:21:32;;;;;;;7.47;1.23;;;;;;;;;;8269114;28;20022;-62
2022/10/07 04:25:33;;;;;;;3.97;1.20;;;;;;;;;;8269715;28;20040;-62
2022/10/07 04:29:33;;;;;;;2.10;0.90;;;;;;;;;;8271887;28;20554;-61
2022/10/07 04:33:36;;;;;;;3.45;0.80;;;;;;;;;;8269485;28;20042;-61
2022/10/07 04:37:36;;;;;;;5.13;1.10;;;;;;;;;;8271982;28;20029;-62
2022/10/07 04:41:37;;;;;;;3.22;1.00;;;;;;;;;;8270826;28;20029;-62
2022/10/07 04:45:39;;;;;;;5.78;0.90;;;;;;;;;;8269726;28;20118;-62
2022/10/07 04:49:39;;;;;;;2.75;0.98;;;;;;;;;;8266187;28;20466;-62
2022/10/07 04:53:39;;;;;;;4.13;1.08;;;;;;;;;;8269309;28;20022;-61
2022/10/07 04:57:40;;;;;;;4.53;0.98;;;;;;;;;;8269782;28;20889;-62
2022/10/07 05:01:41;;;;;;;3.78;1.10;;;;;;;;;;8269331;28;20049;-62
2022/10/07 05:05:42;;;;;;;4.85;1.10;;;;;;;;;;8268591;28;20409;-62
2022/10/07 05:09:42;;;;;;;5.75;1.33;;;;;;;;;;8270652;28;20018;-63
2022/10/07 05:13:42;;;;;;;1.75;0.70;;;;;;;;;;8269239;28;20029;-62
2022/10/07 05:17:42;;;;;;;4.70;1.38;;;;;;;;;;8268289;28;20069;-61
2022/10/07 05:21:42;;;;;;;4.25;0.95;;;;;;;;;;8267414;28;20034;-61
2022/10/07 05:25:43;;;;;;;2.17;1.07;;;;;;;;;;8270950;28;20056;-63
2022/10/07 05:29:43;;;;;;;7.93;1.75;;;;;;;;;;8268425;28;20291;-62
2022/10/07 05:33:44;;;;;;;7.55;1.77;;;;;;;;;;8278173;28;20038;-61
2022/10/07 05:37:45;;;;;;;3.25;1.13;;;;;;;;;;8276245;28;21006;-62
2022/10/07 05:41:45;;;;;;;3.60;1.20;;;;;;;;;;8277071;28;20026;-62
2022/10/07 05:45:46;;;;;;;4.95;0.90;;;;;;;;;;8276779;28;20530;-62
2022/10/07 05:49:46;;;;;;;12.93;1.30;;;;;;;;;;8276588;28;20029;-63
2022/10/07 05:53:46;;;;;;;4.83;0.90;;;;;;;;;;8277067;28;20108;-62
2022/10/07 05:57:47;;;;;;;4.95;1.30;;;;;;;;;;8269975;28;20080;-61
2022/10/07 06:01:47;;;;;;;3.65;1.13;;;;;;;;;;8266535;28;20038;-62
2022/10/07 06:05:49;;;;;;;2.95;0.95;;;;;;;;;;8265957;28;20116;-61
2022/10/07 06:14:09;;;;;;;5.35;1.38;;;;;;;;;;8265330;28;20497;-61
2022/10/07 06:18:09;;;;;;;4.05;1.27;;;;;;;;;;8267244;28;20041;-63
2022/10/07 06:22:10;;;;;;;5.25;1.50;;;;;;;;;;8265977;28;20040;-62
2022/10/07 06:26:10;;;;;;;9.90;1.70;;;;;;;;;;8266745;28;20544;-61
2022/10/07 06:30:11;;;;;;;6.65;1.23;;;;;;;;;;8265160;28;20014;-63
2022/10/07 06:34:12;;;;;;;3.85;1.40;;;;;;;;;;8266577;28;20206;-62
2022/10/07 06:38:12;;;;;;;5.55;1.30;;;;;;;;;;8266544;28;20144;-62
2022/10/07 06:42:12;;;;;;;6.22;1.50;;;;;;;;;;8264447;28;20029;-62
2022/10/07 06:46:14;;;;;;;11.57;1.63;;;;;;;;;;8264702;28;20500;-62
2022/10/07 06:50:14;;;;;;;5.32;1.27;;;;;;;;;;8268122;28;20445;-63
2022/10/07 06:54:14;;;;;;;4.72;1.67;;;;;;;;;;8267006;28;20589;-63
2022/10/07 06:58:14;;;;;;;5.65;1.50;;;;;;;;;;8266385;28;20033;-63
2022/10/07 07:02:15;;;;;;;3.67;1.58;;;;;;;;;;8265045;28;20153;-63
2022/10/07 07:06:15;;;;;;;6.25;1.80;;;;;;;;;;8264253;28;20022;-63
2022/10/07 07:10:16;;;;;;;5.15;1.80;;;;;;;;;;8263815;28;20022;-63
2022/10/07 07:14:17;;;;;;;5.25;2.17;;;;;;;;;;8267168;28;20463;-63
2022/10/07 07:18:17;;;;;;;7.53;2.30;;;;;;;;;;8264942;28;20037;-63
2022/10/07 07:22:17;;;;;;;6.95;2.17;;;;;;;;;;8264925;28;20506;-63
2022/10/07 07:26:19;;;;;;;5.78;1.90;;;;;;;;;;8264795;28;20407;-63
2022/10/07 07:30:22;;;;;;;6.13;1.55;;;;;;;;;;8263873;28;20021;-63
2022/10/07 07:34:22;;;;;;;6.20;2.00;;;;;;;;;;8266197;28;20029;-63
2022/10/07 07:38:22;;;;;;;6.65;3.00;;;;;;;;;;8264286;28;20022;-63
2022/10/07 07:42:23;;;;;;;13.52;5.68;;;;;;;;;;8265641;28;20084;-63
2022/10/07 07:46:24;;;;;;;8.77;3.00;;;;;;;;;;8264910;28;20029;-63
2022/10/07 07:50:26;;;;;;;6.18;1.90;;;;;;;;;;8263232;28;20063;-63
2022/10/07 07:54:27;;;;;;;5.63;2.08;;;;;;;;;;8263992;28;20049;-63
2022/10/07 07:58:28;;;;;;;5.13;2.35;;;;;;;;;;8263834;28;20131;-63
2022/10/07 08:02:29;;;;;;;7.50;2.35;;;;;;;;;;8263006;28;20313;-63
2022/10/07 08:06:30;;;;;;;6.65;1.80;;;;;;;;;;8264260;28;20029;-63
2022/10/07 08:10:30;;;;;;;7.43;2.37;;;;;;;;;;8264181;28;20527;-63
2022/10/07 08:14:30;;;;;;;5.38;1.80;;;;;;;;;;8263162;28;20100;-63
2022/10/07 08:18:31;;;;;;;4.50;1.50;;;;;;;;;;8261630;28;20505;-63
2022/10/07 08:22:31;;;;;;;6.07;1.77;;;;;;;;;;8263262;28;20048;-63
2022/10/07 08:26:32;;;;;;;6.10;2.22;;;;;;;;;;8262579;28;20651;-63
2022/10/07 08:30:32;;;;;;;6.07;1.90;;;;;;;;;;8263440;28;20030;-63
2022/10/07 08:34:33;;;;;;;5.25;1.95;;;;;;;;;;8261147;28;20502;-63
2022/10/07 08:38:35;;;;;;;3.55;1.52;;;;;;;;;;8262170;28;20600;-63
2022/10/07 08:42:40;;;;;;;5.72;1.85;;;;;;;;;;8263947;28;20622;-63
2022/10/07 08:46:48;;;;;;;5.68;1.55;;;;;;;;;;8262522;28;20192;-63
2022/10/07 08:50:50;;;;;;;5.18;1.60;;;;;;;;;;8262610;28;20289;-63
2022/10/07 08:54:51;;;;;;;6.43;1.48;;;;;;;;;;8263817;28;20120;-63
2022/10/07 08:58:57;;;;;;;5.80;1.60;;;;;;;;;;8264222;28;20064;-63
2022/10/07 09:03:05;;;;;;;5.57;1.63;;;;;;;;;;8260131;28;20037;-63
2022/10/07 09:07:14;;;;;;;8.23;1.63;;;;;;;;;;8265229;28;20064;-62
2022/10/07 09:11:18;;;;;;;6.93;1.52;;;;;;;;;;8268347;28;20475;-62
2022/10/07 09:15:40;;;;;;;9.38;1.80;;;;;;;;;;8269132;28;20659;-62
2022/10/07 09:19:43;;;;;;;6.10;1.50;;;;;;;;;;8268935;28;20390;-63
2022/10/07 09:23:44;;;;;;;8.60;1.55;;;;;;;;;;8269649;28;20032;-62
2022/10/07 09:27:45;;;;;;;5.35;1.58;;;;;;;;;;8269932;28;20072;-62
2022/10/07 09:31:46;;;;;;;6.03;1.60;;;;;;;;;;8266091;28;20041;-63
2022/10/07 09:35:53;;;;;;;8.38;1.65;;;;;;;;;;8269752;28;20883;-62
2022/10/07 09:39:57;;;;;;;7.47;1.60;;;;;;;;;;8269067;28;20513;-63
2022/10/07 09:44:00;;;;;;;6.72;1.30;;;;;;;;;;8268213;28;20375;-63
2022/10/07 09:48:06;;;;;;;8.07;1.65;;;;;;;;;;8267892;28;20042;-63
2022/10/07 09:52:14;;;;;;;5.72;1.38;;;;;;;;;;8265834;28;20247;-63
2022/10/07 09:56:29;;;;;;;8.20;1.48;;;;;;;;;;8268291;28;20133;-63
2022/10/07 10:00:29;;;;;;;6.60;1.67;;;;;;;;;;8268404;28;20093;-62
2022/10/07 10:04:34;;;;;;;9.75;2.13;;;;;;;;;;8266298;28;20030;-62
2022/10/07 10:08:34;;;;;;;10.70;1.70;;;;;;;;;;8279061;28;20047;-62
2022/10/07 10:12:43;;;;;;;6.35;2.00;;;;;;;;;;8270154;28;20044;-63
2022/10/07 10:16:45;;;;;;;4.28;1.80;;;;;;;;;;8270895;28;20164;-62
2022/10/07 10:20:45;;;;;;;11.90;2.40;;;;;;;;;;8270790;28;20033;-62
2022/10/07 10:29:15;;;;;;;9.32;1.83;;;;;;;;;;8287513;28;20598;-62
2022/10/07 10:33:16;;;;;;;;;;;;;;;;;;8285442;28;20434;-62
2022/10/07 10:37:36;;;;;;;9.93;1.67;;;;;;;;;;8282018;28;19974;-62
2022/10/07 10:41:51;;;;;;;5.63;1.65;;;;;;;;;;8265839;28;20613;-62
2022/10/07 10:46:11;;;;;;;6.00;1.52;;;;;;;;;;8267492;28;20034;-63
2022/10/07 10:50:22;;;;;;;4.35;1.77;;;;;;;;;;8268684;28;20030;-62
2022/10/07 10:54:26;;;;;;;6.78;1.55;;;;;;;;;;8270242;28;20748;-62
2022/10/07 10:58:45;;;;;;;6.53;1.95;;;;;;;;;;8271408;28;20844;-61
2022/10/07 11:02:58;;;;;;;9.35;1.80;;;;;;;;;;8267603;28;20045;-61
2022/10/07 11:07:00;;;;;;;7.13;1.90;;;;;;;;;;8275939;28;20549;-61
2022/10/07 11:11:05;;;;;;;6.13;1.60;;;;;;;;;;8269613;28;20052;-61
2022/10/07 11:15:19;;;;;;;7.43;1.90;;;;;;;;;;8268374;28;20017;-61
2022/10/07 11:19:22;;;;;;;5.32;1.60;;;;;;;;;;8272078;28;20025;-62
2022/10/07 11:23:40;;;;;;;7.22;1.88;;;;;;;;;;8265863;28;20585;-62
2022/10/07 11:27:41;;;;;;;7.47;1.80;;;;;;;;;;8262498;28;20084;-62
2022/10/07 11:31:46;;;;;;;9.40;1.60;;;;;;;;;;8260619;28;20034;-62
2022/10/07 11:35:49;;;;;;;4.60;1.73;;;;;;;;;;8268626;28;20021;-62
2022/10/07 11:39:52;;;;;;;7.50;1.80;;;;;;;;;;8263255;28;20391;-62
2022/10/07 11:43:55;;;;;;;5.40;1.90;;;;;;;;;;8260730;28;20406;-63
2022/10/07 11:47:58;;;;;;;8.35;1.95;;;;;;;;;;8260485;28;20048;-63
2022/10/07 11:52:00;;;;;;;6.17;1.53;;;;;;;;;;8258449;28;20418;-63
2022/10/07 11:56:01;;;;;;;5.70;1.63;;;;;;;;;;8258938;28;20083;-63
2022/10/07 12:00:03;;;;;;;4.93;1.55;;;;;;;;;;8259947;28;20033;-63
2022/10/07 12:04:23;;;;;;;6.25;1.75;;;;;;;;;;8259063;28;20046;-63
2022/10/07 12:08:23;;;;;;;12.15;2.20;;;;;;;;;;8257878;28;20084;-63
2022/10/07 12:12:23;;;;;;;6.00;1.40;;;;;;;;;;8259907;28;20022;-63
2022/10/07 12:16:30;;;;;;;7.00;1.90;;;;;;;;;;8258974;28;20089;-62
2022/10/07 12:20:36;;;;;;;5.47;1.80;;;;;;;;;;8260544;28;20051;-63
2022/10/07 12:24:37;;;;;;;4.95;1.80;;;;;;;;;;8260981;28;20499;-63
2022/10/07 12:28:40;;;;;;;9.10;1.70;;;;;;;;;;8260837;28;20461;-63
2022/10/07 12:32:45;;;;;;;7.97;1.85;;;;;;;;;;8259641;28;20038;-63
2022/10/07 12:36:45;;;;;;;7.63;1.55;;;;;;;;;;8259819;28;20577;-63
2022/10/07 12:41:01;;;;;;;9.85;1.88;;;;;;;;;;8258934;28;20026;-63
2022/10/07 12:45:02;;;;;;;6.00;1.70;;;;;;;;;;8261010;28;20122;-63
2022/10/07 12:49:21;;;;;;;10.38;2.28;;;;;;;;;;8259106;28;20076;-63
2022/10/07 12:53:25;;;;;;;8.13;1.77;;;;;;;;;;8258873;28;20744;-63
2022/10/07 12:57:30;;;;;;;7.35;2.30;;;;;;;;;;8258889;28;20423;-63
2022/10/07 13:01:45;;;;;;;5.72;1.73;;;;;;;;;;8257783;28;20068;-63
2022/10/07 13:06:04;;;;;;;6.63;1.67;;;;;;;;;;8260200;28;20063;-63
2022/10/07 13:10:16;;;;;;;9.18;1.60;;;;;;;;;;8258161;28;20811;-63
2022/10/07 13:14:17;;;;;;;9.77;1.80;;;;;;;;;;8259510;28;20462;-63
2022/10/07 13:18:20;;;;;;;7.65;1.98;;;;;;;;;;8260449;28;20124;-63
2022/10/07 13:22:23;;;;;;;10.32;2.20;;;;;;;;;;8261946;28;20022;-63
2022/10/07 13:26:24;;;;;;;8.30;2.10;;;;;;;;;;8261310;28;20030;-63
2022/10/07 13:30:31;;;;;;;9.48;2.40;;;;;;;;;;8263546;28;20764;-61
2022/10/07 13:34:32;;;;;;;8.77;2.30;;;;;;;;;;8262080;28;20029;-63
2022/10/07 13:38:33;;;;;;;8.77;2.42;;;;;;;;;;8263728;28;20028;-64
2022/10/07 13:42:34;;;;;;;7.50;2.17;;;;;;;;;;8261338;28;20037;-64
2022/10/07 13:46:35;;;;;;;5.18;1.83;;;;;;;;;;8262100;28;20523;-64
2022/10/07 13:50:36;;;;;;;6.85;2.17;;;;;;;;;;8261346;28;20029;-64
2022/10/07 13:54:36;;;;;;;10.65;2.47;;;;;;;;;;8267797;28;20915;-63
2022/10/07 13:58:36;;;;;;;8.63;2.30;;;;;;;;;;8276815;28;20025;-63
2022/10/07 14:02:38;;;;;;;8.70;2.40;;;;;;;;;;8269416;28;20080;-63
2022/10/07 14:06:43;;;;;;;8.52;2.40;;;;;;;;;;8272348;28;20116;-63
2022/10/07 14:10:49;;;;;;;7.60;2.15;;;;;;;;;;8270647;28;20029;-63
2022/10/07 14:14:53;;;;;;;7.68;2.10;;;;;;;;;;8275274;28;20395;-62
2022/10/07 14:18:54;;;;;;;7.93;1.73;;;;;;;;;;8269080;28;20030;-62
2022/10/07 14:22:58;;;;;;;3.83;1.40;;;;;;;;;;8282611;28;20029;-62
2022/10/07 14:26:59;;;;;;;5.25;1.65;;;;;;;;;;8269374;28;20368;-62
2022/10/07 14:35:25;;;;;;;6.88;1.50;;;;;;;;;;8269591;28;20044;-63
2022/10/07 14:39:30;;;;;;;4.65;1.50;;;;;;;;;;8268597;28;20361;-62
2022/10/07 14:43:31;;;;;;;6.40;1.55;;;;;;;;;;8270902;28;20030;-62
2022/10/07 14:47:32;;;;;;;5.55;1.55;;;;;;;;;;8266656;28;20448;-62
2022/10/07 14:51:32;;;;;;;6.30;1.50;;;;;;;;;;8271764;28;20029;-61
2022/10/07 14:55:32;;;;;;;4.68;1.98;;;;;;;;;;8269800;28;20435;-62
2022/10/07 14:59:34;;;;;;;9.25;1.77;;;;;;;;;;8275812;28;20559;-62
2022/10/07 15:03:34;;;;;;;7.47;1.85;;;;;;;;;;8268566;28;20394;-62
2022/10/07 15:07:34;;;;;;;5.05;1.67;;;;;;;;;;8276789;28;20105;-62
2022/10/07 15:11:35;;;;;;;10.60;2.50;;;;;;;;;;8270717;28;20131;-62
2022/10/07 15:15:39;;;;;;;7.35;2.33;;;;;;;;;;8271073;28;20048;-62
2022/10/07 15:19:39;;;;;;;7.35;2.22;;;;;;;;;;8272208;28;20119;-63
2022/10/07 15:23:40;;;;;;;7.03;2.40;;;;;;;;;;8279689;28;20036;-62
2022/10/07 15:27:40;;;;;;;6.43;2.30;;;;;;;;;;8278048;28;20029;-62
2022/10/07 15:31:41;;;;;;;7.90;2.10;;;;;;;;;;8277604;28;20120;-63
2022/10/07 15:35:42;;;;;;;10.80;2.40;;;;;;;;;;8271092;28;20492;-62
2022/10/07 15:39:42;;;;;;;6.50;2.22;;;;;;;;;;8275991;28;20402;-62
2022/10/07 15:43:42;;;;;;;8.37;2.90;;;;;;;;;;8274317;28;20022;-62
2022/10/07 15:47:43;;;;;;;7.05;2.15;;;;;;;;;;8270255;28;20347;-62
2022/10/07 15:51:45;;;;;;;7.70;2.60;;;;;;;;;;8268354;28;20565;-61
2022/10/07 15:56:03;;;;;;;8.05;2.15;;;;;;;;;;8278845;28;20042;-62
2022/10/07 16:00:03;;;;;;;9.07;2.10;;;;;;;;;;8280485;28;20029;-61
2022/10/07 16:04:04;;;;;;;8.80;2.50;;;;;;;;;;8269496;28;20042;-61
2022/10/07 16:08:05;;;;;;;10.63;5.78;;;;;;;;;;8280345;28;20096;-61
2022/10/07 16:12:05;;;;;;;33.85;17.70;;;;;;;;;;8268622;28;20025;-61
2022/10/07 16:16:08;;;;;;;23.33;12.63;;;;;;;;;;8269280;28;20474;-61
2022/10/07 16:20:09;;;;;;;19.73;9.52;;;;;;;;;;8266968;28;20048;-62
2022/10/07 16:24:14;;;;;;;12.13;6.10;;;;;;;;;;8267533;28;20018;-61
2022/10/07 16:32:32;;;;;;;13.10;7.15;;;;;;;;;;8266024;28;20634;-61
2022/10/07 16:36:34;;;;;;;9.45;5.60;;;;;;;;;;8271249;28;20030;-61
2022/10/07 16:40:35;;;;;;;10.50;5.00;;;;;;;;;;8266915;28;20029;-61
2022/10/07 16:44:35;;;;;;;12.38;4.05;;;;;;;;;;8268662;28;20029;-61
2022/10/07 16:48:39;;;;;;;6.33;4.07;;;;;;;;;;8267131;28;20840;-60
2022/10/07 16:52:40;;;;;;;6.97;5.43;;;;;;;;;;8263023;28;20448;-61
2022/10/07 16:56:42;;;;;;;6.18;2.97;;;;;;;;;;8263162;28;20577;-60
2022/10/07 17:00:43;;;;;;;6.97;2.60;;;;;;;;;;8278576;28;20048;-61
2022/10/07 17:04:43;;;;;;;6.32;2.67;;;;;;;;;;8278005;28;20037;-61
2022/10/07 17:08:44;;;;;;;4.00;2.15;;;;;;;;;;8272959;28;20116;-61
2022/10/07 17:12:44;;;;;;;4.93;2.03;;;;;;;;;;8266266;28;20452;-61
2022/10/07 17:16:49;;;;;;;6.35;2.30;;;;;;;;;;8268484;28;20038;-61
2022/10/07 17:20:49;;;;;;;7.35;2.50;;;;;;;;;;8268187;28;20584;-61
2022/10/07 17:24:50;;;;;;;11.75;2.75;;;;;;;;;;8272322;28;20038;-62
2022/10/07 17:28:54;;;;;;;4.67;2.30;;;;;;;;;;8277300;28;20376;-62
2022/10/07 17:32:54;;;;;;;5.45;2.75;;;;;;;;;;8274753;28;20346;-62
2022/10/07 17:36:57;;;;;;;9.43;3.20;;;;;;;;;;8275475;28;20030;-61
2022/10/07 17:40:57;;;;;;;6.82;3.30;;;;;;;;;;8277087;28;20022;-61
2022/10/07 17:44:59;;;;;;;7.18;4.00;;;;;;;;;;8274542;28;20021;-61
2022/10/07 17:49:00;;;;;;;16.92;5.38;;;;;;;;;;8269303;28;20097;-61
2022/10/07 17:53:01;;;;;;;14.50;5.65;;;;;;;;;;8269420;28;20429;-62
2022/10/07 17:57:01;;;;;;;10.90;3.80;;;;;;;;;;8278138;28;20099;-61
2022/10/07 18:01:11;;;;;;;5.70;3.00;;;;;;;;;;8277787;28;20260;-62
2022/10/07 18:05:11;;;;;;;5.55;2.80;;;;;;;;;;8265623;28;20032;-62
2022/10/07 18:09:13;;;;;;;9.07;3.10;;;;;;;;;;8263029;28;20061;-62
2022/10/07 18:17:32;;;;;;;5.97;2.72;;;;;;;;;;8270126;28;20052;-62
2022/10/07 18:21:33;;;;;;;8.20;2.60;;;;;;;;;;8271626;28;20418;-62
2022/10/07 18:25:34;;;;;;;7.25;2.53;;;;;;;;;;8265217;28;20450;-62
2022/10/07 18:29:36;;;;;;;3.53;2.20;;;;;;;;;;8265018;28;20037;-62
2022/10/07 18:33:37;;;;;;;5.38;2.63;;;;;;;;;;8262090;28;20115;-62
2022/10/07 18:37:37;;;;;;;6.35;2.50;;;;;;;;;;8266207;28;20029;-62
2022/10/07 18:41:38;;;;;;;5.00;2.10;;;;;;;;;;8262191;28;20037;-62
2022/10/07 18:45:38;;;;;;;6.57;2.70;;;;;;;;;;8265571;28;20489;-62
2022/10/07 18:49:38;;;;;;;9.13;3.28;;;;;;;;;;8263717;28;20034;-62
2022/10/07 18:53:39;;;;;;;10.13;3.10;;;;;;;;;;8266791;28;20022;-63
2022/10/07 18:57:39;;;;;;;5.15;2.97;;;;;;;;;;8264352;28;20022;-62
2022/10/07 19:01:40;;;;;;;6.45;2.45;;;;;;;;;;8263114;28;20164;-62
2022/10/07 19:05:40;;;;;;;4.78;2.13;;;;;;;;;;8263728;28;20021;-62
2022/10/07 19:09:40;;;;;;;4.63;2.08;;;;;;;;;;8264281;28;20116;-62
2022/10/07 19:13:47;;;;;;;5.20;2.17;;;;;;;;;;8261038;28;20493;-62
2022/10/07 19:17:47;;;;;;;6.45;2.35;;;;;;;;;;8262552;28;20573;-62
2022/10/07 19:21:50;;;;;;;4.97;1.90;;;;;;;;;;8263097;28;20475;-62
2022/10/07 19:25:53;;;;;;;3.70;2.00;;;;;;;;;;8262386;28;20104;-62
2022/10/07 19:29:53;;;;;;;7.20;1.98;;;;;;;;;;8266305;28;20068;-62
2022/10/07 19:34:00;;;;;;;9.35;2.22;;;;;;;;;;8262140;28;20030;-62
2022/10/07 19:38:00;;;;;;;7.85;2.08;;;;;;;;;;8264221;28;20034;-62
2022/10/07 19:42:01;;;;;;;3.50;2.22;;;;;;;;;;8265087;28;20033;-62
2022/10/07 19:46:01;;;;;;;6.18;2.00;;;;;;;;;;8261135;28;20427;-62
2022/10/07 19:50:01;;;;;;;7.22;2.35;;;;;;;;;;8262529;28;20033;-62
2022/10/07 19:54:05;;;;;;;6.25;2.63;;;;;;;;;;8265688;28;20036;-62
2022/10/07 19:58:05;;;;;;;4.67;2.10;;;;;;;;;;8264567;28;20578;-62
2022/10/07 20:02:07;;;;;;;5.93;2.30;;;;;;;;;;8262930;28;20963;-63
2022/10/07 20:06:08;;;;;;;5.50;2.13;;;;;;;;;;8264542;28;20056;-62
2022/10/07 20:10:08;;;;;;;6.18;2.13;;;;;;;;;;8260813;28;20802;-62
2022/10/07 20:14:09;;;;;;;6.15;2.03;;;;;;;;;;8262503;28;20032;-62
2022/10/07 20:18:09;;;;;;;4.82;2.30;;;;;;;;;;8260883;28;20466;-62
2022/10/07 20:22:10;;;;;;;3.17;2.30;;;;;;;;;;8260287;28;20056;-62
2022/10/07 20:26:14;;;;;;;3.97;2.08;;;;;;;;;;8262874;28;20287;-62
2022/10/07 20:30:15;;;;;;;4.45;2.35;;;;;;;;;;8265527;28;20037;-62
2022/10/07 20:34:18;;;;;;;5.93;2.20;;;;;;;;;;8265782;28;20080;-62
2022/10/07 20:38:19;;;;;;;5.07;1.90;;;;;;;;;;8271716;28;20075;-62
2022/10/07 20:42:24;;;;;;;7.38;2.17;;;;;;;;;;8268036;28;20038;-62
2022/10/07 20:46:24;;;;;;;4.93;2.55;;;;;;;;;;8269909;28;20074;-62
2022/10/07 20:50:24;;;;;;;4.85;2.28;;;;;;;;;;8271324;28;20562;-62
2022/10/07 20:54:25;;;;;;;4.77;2.20;;;;;;;;;;8272529;28;20021;-62
2022/10/07 20:58:25;;;;;;;5.78;2.63;;;;;;;;;;8269650;28;20323;-62
2022/10/07 21:02:27;;;;;;;6.47;2.38;;;;;;;;;;8268359;28;20537;-62
2022/10/07 21:06:27;;;;;;;6.85;2.50;;;;;;;;;;8272018;28;20048;-63
2022/10/07 21:10:27;;;;;;;4.93;2.58;;;;;;;;;;8269894;28;20574;-63
2022/10/07 21:14:28;;;;;;;6.25;2.60;;;;;;;;;;8269708;28;20587;-63
2022/10/07 21:18:29;;;;;;;4.60;2.47;;;;;;;;;;8270280;28;20064;-62
2022/10/07 21:22:29;;;;;;;8.23;2.40;;;;;;;;;;8271514;28;20037;-63
2022/10/07 21:26:29;;;;;;;8.68;2.05;;;;;;;;;;8270827;28;20107;-64
2022/10/07 21:30:31;;;;;;;6.97;2.30;;;;;;;;;;8270398;28;20509;-63
2022/10/07 21:34:31;;;;;;;7.82;2.70;;;;;;;;;;8272183;28;20032;-63
2022/10/07 21:38:32;;;;;;;4.20;2.15;;;;;;;;;;8271215;28;20030;-63
2022/10/07 21:42:33;;;;;;;5.63;2.60;;;;;;;;;;8269564;28;20033;-63
2022/10/07 21:46:35;;;;;;;5.50;2.90;;;;;;;;;;8272750;28;20037;-62
2022/10/07 21:50:35;;;;;;;6.38;2.85;;;;;;;;;;8261825;28;20440;-62
2022/10/07 21:54:37;;;;;;;5.93;2.50;;;;;;;;;;8258355;28;20156;-63
2022/10/07 21:58:37;;;;;;;6.07;2.80;;;;;;;;;;8274971;28;20813;-63
2022/10/07 22:02:37;;;;;;;8.13;2.75;;;;;;;;;;8259978;28;20787;-62
2022/10/07 22:11:16;;;;;;;5.93;2.72;;;;;;;;;;8259650;28;20283;-62
2022/10/07 22:15:16;;;;;;;4.85;2.28;;;;;;;;;;8266766;28;20508;-62
2022/10/07 22:19:16;;;;;;;9.50;3.40;;;;;;;;;;8269384;28;20022;-62
2022/10/07 22:23:17;;;;;;;7.13;3.20;;;;;;;;;;8272552;28;20038;-62
2022/10/07 22:27:17;;;;;;;6.38;3.28;;;;;;;;;;8270349;28;20115;-63
2022/10/07 22:31:18;;;;;;;7.63;3.00;;;;;;;;;;8268478;28;20706;-62
2022/10/07 22:35:29;;;;;;;10.60;3.03;;;;;;;;;;8275325;28;20025;-63
2022/10/07 22:39:29;;;;;;;6.25;3.10;;;;;;;;;;8271782;28;20098;-62
2022/10/07 22:43:30;;;;;;;7.07;3.30;;;;;;;;;;8271678;28;20250;-62
2022/10/07 22:47:30;;;;;;;9.80;3.00;;;;;;;;;;8272986;28;20300;-62
2022/10/07 22:51:30;;;;;;;7.05;2.95;;;;;;;;;;8273674;28;20037;-62
2022/10/07 22:55:32;;;;;;;8.48;2.85;;;;;;;;;;8271616;28;20028;-62
2022/10/07 22:59:33;;;;;;;6.88;2.97;;;;;;;;;;8272776;28;20018;-62
2022/10/07 23:03:37;;;;;;;8.38;3.03;;;;;;;;;;8267513;28;20044;-62
2022/10/07 23:07:37;;;;;;;4.15;2.67;;;;;;;;;;8269395;28;20140;-62
2022/10/07 23:11:37;;;;;;;8.55;3.05;;;;;;;;;;8269379;28;20041;-62
2022/10/07 23:15:37;;;;;;;8.57;3.00;;;;;;;;;;8270090;28;20149;-62
2022/10/07 23:19:37;;;;;;;7.70;2.85;;;;;;;;;;8270890;28;20037;-62
2022/10/07 23:23:39;;;;;;;6.17;3.30;;;;;;;;;;8269391;28;20030;-62
2022/10/07 23:27:40;;;;;;;7.65;3.13;;;;;;;;;;8269487;28;20303;-62
2022/10/07 23:31:41;;;;;;;9.23;2.78;;;;;;;;;;8272182;28;20033;-62
2022/10/07 23:35:41;;;;;;;12.13;3.70;;;;;;;;;;8269961;28;20076;-62
2022/10/07 23:39:41;;;;;;;14.00;3.53;;;;;;;;;;8270448;28;20639;-62
2022/10/07 23:43:41;;;;;;;6.53;3.40;;;;;;;;;;8271166;28;20891;-63
2022/10/07 23:47:42;;;;;;;8.40;3.33;;;;;;;;;;8270738;28;20788;-62
2022/10/07 23:51:42;;;;;;;5.82;3.25;;;;;;;;;;8272426;28;20029;-63
2022/10/07 23:55:43;;;;;;;9.45;3.13;;;;;;;;;;8269011;28;20021;-63
2022/10/07 23:59:43;;;;;;;9.43;3.45;;;;;;;;;;8271078;28;20033;-62
